sensor_id;sensor_type;location;lat;lon;timestamp;P1;durP1;ratioP1;P2;durP2;ratioP2
16228;SDS011;8222;51.462;12.630;2022-08-19T00:01:30;14.50;;;13.30;;
16228;SDS011;8222;51.462;12.630;2022-08-19T00:03:58;17.23;;;15.53;;
16228;SDS011;8222;51.462;12.630;2022-08-19T00:06:26;17.00;;;15.52;;
16228;SDS011;8222;51.462;12.630;2022-08-19T00:08:53;19.30;;;17.50;;
16228;SDS011;8222;51.462;12.630;2022-08-19T00:11:20;18.45;;;16.85;;
16228;SDS011;8222;51.462;12.630;2022-08-19T00:13:46;20.07;;;18.23;;
16228;SDS011;8222;51.462;12.630;2022-08-19T00:16:13;18.73;;;16.92;;
16228;SDS011;8222;51.462;12.630;2022-08-19T00:18:39;20.23;;;18.38;;
16228;SDS011;8222;51.462;12.630;2022-08-19T00:21:05;20.73;;;18.77;;
16228;SDS011;8222;51.462;12.630;2022-08-19T00:23:33;17.50;;;15.90;;
16228;SDS011;8222;51.462;12.630;2022-08-19T00:26:01;19.10;;;17.20;;
16228;SDS011;8222;51.462;12.630;2022-08-19T00:28:31;21.25;;;19.33;;
16228;SDS011;8222;51.462;12.630;2022-08-19T00:30:58;21.10;;;19.23;;
16228;SDS011;8222;51.462;12.630;2022-08-19T00:33:24;20.98;;;19.05;;
16228;SDS011;8222;51.462;12.630;2022-08-19T00:35:50;20.55;;;18.60;;
16228;SDS011;8222;51.462;12.630;2022-08-19T00:38:15;20.67;;;18.57;;
16228;SDS011;8222;51.462;12.630;2022-08-19T00:40:42;21.77;;;19.43;;
16228;SDS011;8222;51.462;12.630;2022-08-19T00:43:11;22.33;;;20.13;;
16228;SDS011;8222;51.462;12.630;2022-08-19T00:45:40;22.42;;;20.30;;
16228;SDS011;8222;51.462;12.630;2022-08-19T00:48:09;22.00;;;19.90;;
16228;SDS011;8222;51.462;12.630;2022-08-19T00:50:35;22.40;;;20.40;;
16228;SDS011;8222;51.462;12.630;2022-08-19T00:53:01;23.00;;;20.90;;
16228;SDS011;8222;51.462;12.630;2022-08-19T00:55:29;23.25;;;21.05;;
16228;SDS011;8222;51.462;12.630;2022-08-19T00:58:04;24.15;;;21.85;;
16228;SDS011;8222;51.462;12.630;2022-08-19T01:00:35;23.33;;;21.08;;
16228;SDS011;8222;51.462;12.630;2022-08-19T01:03:06;23.20;;;21.17;;
16228;SDS011;8222;51.462;12.630;2022-08-19T01:05:36;24.00;;;21.52;;
16228;SDS011;8222;51.462;12.630;2022-08-19T01:08:04;21.92;;;19.80;;
16228;SDS011;8222;51.462;12.630;2022-08-19T01:10:33;22.80;;;20.70;;
16228;SDS011;8222;51.462;12.630;2022-08-19T01:13:03;23.25;;;21.05;;
16228;SDS011;8222;51.462;12.630;2022-08-19T01:15:31;23.33;;;21.10;;
16228;SDS011;8222;51.462;12.630;2022-08-19T01:18:05;22.67;;;20.58;;
16228;SDS011;8222;51.462;12.630;2022-08-19T01:20:33;21.70;;;19.70;;
16228;SDS011;8222;51.462;12.630;2022-08-19T01:22:59;22.00;;;20.05;;
16228;SDS011;8222;51.462;12.630;2022-08-19T01:25:27;21.63;;;19.60;;
16228;SDS011;8222;51.462;12.630;2022-08-19T01:28:00;21.40;;;19.50;;
16228;SDS011;8222;51.462;12.630;2022-08-19T01:30:27;21.90;;;19.88;;
16228;SDS011;8222;51.462;12.630;2022-08-19T01:32:57;22.35;;;20.25;;
16228;SDS011;8222;51.462;12.630;2022-08-19T01:35:26;22.73;;;20.60;;
16228;SDS011;8222;51.462;12.630;2022-08-19T01:37:58;21.45;;;19.40;;
16228;SDS011;8222;51.462;12.630;2022-08-19T01:40:28;22.25;;;20.13;;
16228;SDS011;8222;51.462;12.630;2022-08-19T01:42:56;22.33;;;20.33;;
16228;SDS011;8222;51.462;12.630;2022-08-19T01:45:23;22.73;;;20.63;;
16228;SDS011;8222;51.462;12.630;2022-08-19T01:47:51;21.70;;;19.73;;
16228;SDS011;8222;51.462;12.630;2022-08-19T01:50:17;20.23;;;18.33;;
16228;SDS011;8222;51.462;12.630;2022-08-19T01:52:43;22.02;;;20.00;;
16228;SDS011;8222;51.462;12.630;2022-08-19T01:55:11;23.77;;;21.58;;
16228;SDS011;8222;51.462;12.630;2022-08-19T01:57:39;22.85;;;20.75;;
16228;SDS011;8222;51.462;12.630;2022-08-19T02:00:09;21.47;;;19.37;;
16228;SDS011;8222;51.462;12.630;2022-08-19T02:02:37;21.83;;;19.73;;
16228;SDS011;8222;51.462;12.630;2022-08-19T02:05:04;22.65;;;20.50;;
16228;SDS011;8222;51.462;12.630;2022-08-19T02:07:33;22.10;;;20.05;;
16228;SDS011;8222;51.462;12.630;2022-08-19T02:10:01;22.65;;;20.48;;
16228;SDS011;8222;51.462;12.630;2022-08-19T02:12:36;22.70;;;20.43;;
16228;SDS011;8222;51.462;12.630;2022-08-19T02:15:02;22.02;;;20.02;;
16228;SDS011;8222;51.462;12.630;2022-08-19T02:17:29;22.80;;;20.50;;
16228;SDS011;8222;51.462;12.630;2022-08-19T02:19:55;21.47;;;19.50;;
16228;SDS011;8222;51.462;12.630;2022-08-19T02:22:21;22.83;;;20.63;;
16228;SDS011;8222;51.462;12.630;2022-08-19T02:24:47;21.43;;;19.43;;
16228;SDS011;8222;51.462;12.630;2022-08-19T02:27:13;22.57;;;20.57;;
16228;SDS011;8222;51.462;12.630;2022-08-19T02:29:39;21.35;;;19.42;;
16228;SDS011;8222;51.462;12.630;2022-08-19T02:32:06;21.48;;;19.67;;
16228;SDS011;8222;51.462;12.630;2022-08-19T02:34:31;21.13;;;19.33;;
16228;SDS011;8222;51.462;12.630;2022-08-19T02:36:58;22.20;;;20.20;;
16228;SDS011;8222;51.462;12.630;2022-08-19T02:39:23;21.60;;;19.57;;
16228;SDS011;8222;51.462;12.630;2022-08-19T02:41:49;19.70;;;17.98;;
16228;SDS011;8222;51.462;12.630;2022-08-19T02:44:15;20.83;;;18.92;;
16228;SDS011;8222;51.462;12.630;2022-08-19T02:46:41;20.40;;;18.60;;
16228;SDS011;8222;51.462;12.630;2022-08-19T02:49:09;18.80;;;17.27;;
16228;SDS011;8222;51.462;12.630;2022-08-19T02:51:36;19.23;;;17.58;;
16228;SDS011;8222;51.462;12.630;2022-08-19T02:54:04;19.70;;;18.00;;
16228;SDS011;8222;51.462;12.630;2022-08-19T02:56:31;20.23;;;18.35;;
16228;SDS011;8222;51.462;12.630;2022-08-19T02:59:00;19.52;;;17.67;;
16228;SDS011;8222;51.462;12.630;2022-08-19T03:01:28;20.33;;;18.48;;
16228;SDS011;8222;51.462;12.630;2022-08-19T03:03:56;19.45;;;17.75;;
16228;SDS011;8222;51.462;12.630;2022-08-19T03:06:23;19.57;;;17.77;;
16228;SDS011;8222;51.462;12.630;2022-08-19T03:08:50;19.40;;;17.77;;
16228;SDS011;8222;51.462;12.630;2022-08-19T03:11:22;19.58;;;17.88;;
16228;SDS011;8222;51.462;12.630;2022-08-19T03:13:49;19.05;;;17.45;;
16228;SDS011;8222;51.462;12.630;2022-08-19T03:16:16;19.55;;;17.85;;
16228;SDS011;8222;51.462;12.630;2022-08-19T03:18:43;19.10;;;17.50;;
16228;SDS011;8222;51.462;12.630;2022-08-19T03:21:09;19.27;;;17.37;;
16228;SDS011;8222;51.462;12.630;2022-08-19T03:23:39;17.83;;;16.33;;
16228;SDS011;8222;51.462;12.630;2022-08-19T03:26:05;18.83;;;17.13;;
16228;SDS011;8222;51.462;12.630;2022-08-19T03:28:31;16.52;;;15.10;;
16228;SDS011;8222;51.462;12.630;2022-08-19T03:31:07;16.10;;;14.80;;
16228;SDS011;8222;51.462;12.630;2022-08-19T03:33:38;15.90;;;14.60;;
16228;SDS011;8222;51.462;12.630;2022-08-19T03:38:34;15.30;;;13.88;;
16228;SDS011;8222;51.462;12.630;2022-08-19T03:41:02;15.07;;;13.77;;
16228;SDS011;8222;51.462;12.630;2022-08-19T03:43:31;14.50;;;13.38;;
16228;SDS011;8222;51.462;12.630;2022-08-19T03:45:59;14.88;;;13.48;;
16228;SDS011;8222;51.462;12.630;2022-08-19T03:48:33;14.00;;;12.85;;
16228;SDS011;8222;51.462;12.630;2022-08-19T03:50:59;14.95;;;13.65;;
16228;SDS011;8222;51.462;12.630;2022-08-19T03:53:26;14.13;;;12.93;;
16228;SDS011;8222;51.462;12.630;2022-08-19T03:55:53;12.93;;;11.82;;
16228;SDS011;8222;51.462;12.630;2022-08-19T03:58:20;13.05;;;11.85;;
16228;SDS011;8222;51.462;12.630;2022-08-19T04:00:45;11.32;;;10.40;;
16228;SDS011;8222;51.462;12.630;2022-08-19T04:03:11;13.25;;;12.10;;
16228;SDS011;8222;51.462;12.630;2022-08-19T04:05:37;11.55;;;10.35;;
16228;SDS011;8222;51.462;12.630;2022-08-19T04:08:03;12.77;;;11.60;;
16228;SDS011;8222;51.462;12.630;2022-08-19T04:10:30;12.40;;;11.50;;
16228;SDS011;8222;51.462;12.630;2022-08-19T04:13:03;12.55;;;11.50;;
16228;SDS011;8222;51.462;12.630;2022-08-19T04:15:30;12.82;;;11.85;;
16228;SDS011;8222;51.462;12.630;2022-08-19T04:18:01;13.20;;;12.07;;
16228;SDS011;8222;51.462;12.630;2022-08-19T04:20:27;13.50;;;12.40;;
16228;SDS011;8222;51.462;12.630;2022-08-19T04:22:52;13.43;;;12.20;;
16228;SDS011;8222;51.462;12.630;2022-08-19T04:25:18;13.68;;;12.55;;
16228;SDS011;8222;51.462;12.630;2022-08-19T04:27:44;13.20;;;12.10;;
16228;SDS011;8222;51.462;12.630;2022-08-19T04:30:12;14.13;;;12.82;;
16228;SDS011;8222;51.462;12.630;2022-08-19T04:32:38;14.48;;;13.05;;
16228;SDS011;8222;51.462;12.630;2022-08-19T04:35:04;15.10;;;13.70;;
16228;SDS011;8222;51.462;12.630;2022-08-19T04:37:30;16.35;;;15.02;;
16228;SDS011;8222;51.462;12.630;2022-08-19T04:39:58;15.98;;;14.63;;
16228;SDS011;8222;51.462;12.630;2022-08-19T04:42:42;15.40;;;13.93;;
16228;SDS011;8222;51.462;12.630;2022-08-19T04:45:10;14.82;;;13.60;;
16228;SDS011;8222;51.462;12.630;2022-08-19T04:47:39;16.42;;;14.93;;
16228;SDS011;8222;51.462;12.630;2022-08-19T04:50:06;15.13;;;13.88;;
16228;SDS011;8222;51.462;12.630;2022-08-19T04:52:34;15.57;;;14.27;;
16228;SDS011;8222;51.462;12.630;2022-08-19T04:54:59;17.40;;;15.90;;
16228;SDS011;8222;51.462;12.630;2022-08-19T04:57:25;18.00;;;16.40;;
16228;SDS011;8222;51.462;12.630;2022-08-19T04:59:57;17.00;;;15.60;;
16228;SDS011;8222;51.462;12.630;2022-08-19T05:02:23;17.75;;;16.35;;
16228;SDS011;8222;51.462;12.630;2022-08-19T05:04:49;18.60;;;17.02;;
16228;SDS011;8222;51.462;12.630;2022-08-19T05:07:15;18.85;;;17.27;;
16228;SDS011;8222;51.462;12.630;2022-08-19T05:09:41;19.05;;;17.45;;
16228;SDS011;8222;51.462;12.630;2022-08-19T05:12:07;18.98;;;17.48;;
16228;SDS011;8222;51.462;12.630;2022-08-19T05:14:33;18.52;;;16.92;;
16228;SDS011;8222;51.462;12.630;2022-08-19T05:17:01;19.70;;;18.00;;
16228;SDS011;8222;51.462;12.630;2022-08-19T05:19:27;20.48;;;18.73;;
16228;SDS011;8222;51.462;12.630;2022-08-19T05:22:11;18.02;;;16.60;;
16228;SDS011;8222;51.462;12.630;2022-08-19T05:24:55;18.63;;;17.08;;
16228;SDS011;8222;51.462;12.630;2022-08-19T05:27:21;19.33;;;17.63;;
16228;SDS011;8222;51.462;12.630;2022-08-19T05:29:46;19.70;;;18.00;;
16228;SDS011;8222;51.462;12.630;2022-08-19T05:32:12;19.40;;;17.80;;
16228;SDS011;8222;51.462;12.630;2022-08-19T05:34:38;20.30;;;18.50;;
16228;SDS011;8222;51.462;12.630;2022-08-19T05:37:03;21.17;;;19.30;;
16228;SDS011;8222;51.462;12.630;2022-08-19T05:39:32;20.92;;;19.13;;
16228;SDS011;8222;51.462;12.630;2022-08-19T05:42:02;20.60;;;18.83;;
16228;SDS011;8222;51.462;12.630;2022-08-19T05:44:33;21.83;;;19.92;;
16228;SDS011;8222;51.462;12.630;2022-08-19T05:47:01;22.80;;;20.75;;
16228;SDS011;8222;51.462;12.630;2022-08-19T05:49:30;23.83;;;21.73;;
16228;SDS011;8222;51.462;12.630;2022-08-19T05:51:57;23.58;;;21.40;;
16228;SDS011;8222;51.462;12.630;2022-08-19T05:54:24;25.85;;;23.55;;
16228;SDS011;8222;51.462;12.630;2022-08-19T05:56:51;25.77;;;23.23;;
16228;SDS011;8222;51.462;12.630;2022-08-19T05:59:18;27.70;;;25.20;;
16228;SDS011;8222;51.462;12.630;2022-08-19T06:01:46;28.00;;;25.23;;
16228;SDS011;8222;51.462;12.630;2022-08-19T06:04:18;27.35;;;24.83;;
16228;SDS011;8222;51.462;12.630;2022-08-19T06:06:47;27.38;;;24.85;;
16228;SDS011;8222;51.462;12.630;2022-08-19T06:09:16;28.30;;;25.60;;
16228;SDS011;8222;51.462;12.630;2022-08-19T06:11:47;29.55;;;26.75;;
16228;SDS011;8222;51.462;12.630;2022-08-19T06:14:25;30.50;;;27.55;;
16228;SDS011;8222;51.462;12.630;2022-08-19T06:16:53;29.73;;;26.90;;
16228;SDS011;8222;51.462;12.630;2022-08-19T06:19:19;32.07;;;28.93;;
16228;SDS011;8222;51.462;12.630;2022-08-19T06:21:47;31.20;;;28.08;;
16228;SDS011;8222;51.462;12.630;2022-08-19T06:24:16;32.70;;;29.53;;
16228;SDS011;8222;51.462;12.630;2022-08-19T06:26:45;31.55;;;28.27;;
16228;SDS011;8222;51.462;12.630;2022-08-19T06:29:12;31.70;;;28.50;;
16228;SDS011;8222;51.462;12.630;2022-08-19T06:31:44;32.13;;;29.02;;
16228;SDS011;8222;51.462;12.630;2022-08-19T06:34:14;31.23;;;28.23;;
16228;SDS011;8222;51.462;12.630;2022-08-19T06:36:42;30.92;;;27.73;;
16228;SDS011;8222;51.462;12.630;2022-08-19T06:39:11;31.38;;;28.20;;
16228;SDS011;8222;51.462;12.630;2022-08-19T06:41:43;28.90;;;26.17;;
16228;SDS011;8222;51.462;12.630;2022-08-19T06:44:11;28.98;;;26.13;;
16228;SDS011;8222;51.462;12.630;2022-08-19T06:46:38;29.73;;;26.83;;
16228;SDS011;8222;51.462;12.630;2022-08-19T06:49:04;28.60;;;25.70;;
16228;SDS011;8222;51.462;12.630;2022-08-19T06:51:31;31.17;;;28.03;;
16228;SDS011;8222;51.462;12.630;2022-08-19T06:53:57;31.45;;;28.35;;
16228;SDS011;8222;51.462;12.630;2022-08-19T06:56:27;29.25;;;26.42;;
16228;SDS011;8222;51.462;12.630;2022-08-19T06:58:57;28.75;;;26.02;;
16228;SDS011;8222;51.462;12.630;2022-08-19T07:01:23;28.27;;;25.57;;
16228;SDS011;8222;51.462;12.630;2022-08-19T07:03:48;30.30;;;27.33;;
16228;SDS011;8222;51.462;12.630;2022-08-19T07:06:16;29.15;;;26.23;;
16228;SDS011;8222;51.462;12.630;2022-08-19T07:08:45;30.48;;;27.58;;
16228;SDS011;8222;51.462;12.630;2022-08-19T07:11:12;28.83;;;25.95;;
16228;SDS011;8222;51.462;12.630;2022-08-19T07:13:40;28.73;;;25.92;;
16228;SDS011;8222;51.462;12.630;2022-08-19T07:16:09;28.98;;;26.08;;
16228;SDS011;8222;51.462;12.630;2022-08-19T07:18:37;28.67;;;25.80;;
16228;SDS011;8222;51.462;12.630;2022-08-19T07:21:04;29.13;;;26.45;;
16228;SDS011;8222;51.462;12.630;2022-08-19T07:23:34;28.60;;;25.77;;
16228;SDS011;8222;51.462;12.630;2022-08-19T07:26:05;28.55;;;25.75;;
16228;SDS011;8222;51.462;12.630;2022-08-19T07:28:36;28.17;;;25.48;;
16228;SDS011;8222;51.462;12.630;2022-08-19T07:31:07;28.05;;;25.55;;
16228;SDS011;8222;51.462;12.630;2022-08-19T07:33:35;27.75;;;25.15;;
16228;SDS011;8222;51.462;12.630;2022-08-19T07:36:04;30.67;;;27.77;;
16228;SDS011;8222;51.462;12.630;2022-08-19T07:38:32;32.30;;;29.23;;
16228;SDS011;8222;51.462;12.630;2022-08-19T07:40:59;32.88;;;29.58;;
16228;SDS011;8222;51.462;12.630;2022-08-19T07:43:25;33.60;;;30.20;;
16228;SDS011;8222;51.462;12.630;2022-08-19T07:45:52;33.85;;;30.42;;
16228;SDS011;8222;51.462;12.630;2022-08-19T07:48:22;35.10;;;31.57;;
16228;SDS011;8222;51.462;12.630;2022-08-19T07:50:56;34.67;;;31.17;;
16228;SDS011;8222;51.462;12.630;2022-08-19T07:53:26;34.08;;;30.63;;
16228;SDS011;8222;51.462;12.630;2022-08-19T07:55:53;33.00;;;29.63;;
16228;SDS011;8222;51.462;12.630;2022-08-19T07:58:20;34.17;;;30.58;;
16228;SDS011;8222;51.462;12.630;2022-08-19T08:00:48;33.88;;;30.48;;
16228;SDS011;8222;51.462;12.630;2022-08-19T08:03:16;32.10;;;28.63;;
16228;SDS011;8222;51.462;12.630;2022-08-19T08:05:44;33.45;;;30.13;;
16228;SDS011;8222;51.462;12.630;2022-08-19T08:08:28;32.95;;;29.67;;
16228;SDS011;8222;51.462;12.630;2022-08-19T08:11:13;34.83;;;31.17;;
16228;SDS011;8222;51.462;12.630;2022-08-19T08:13:43;35.22;;;31.40;;
16228;SDS011;8222;51.462;12.630;2022-08-19T08:16:09;35.70;;;32.10;;
16228;SDS011;8222;51.462;12.630;2022-08-19T08:18:35;39.70;;;35.50;;
16228;SDS011;8222;51.462;12.630;2022-08-19T08:21:06;37.05;;;33.20;;
16228;SDS011;8222;51.462;12.630;2022-08-19T08:23:32;39.47;;;35.38;;
16228;SDS011;8222;51.462;12.630;2022-08-19T08:25:58;35.80;;;32.00;;
16228;SDS011;8222;51.462;12.630;2022-08-19T08:28:24;37.95;;;33.67;;
16228;SDS011;8222;51.462;12.630;2022-08-19T08:30:52;37.10;;;33.13;;
16228;SDS011;8222;51.462;12.630;2022-08-19T08:33:23;41.28;;;34.00;;
16228;SDS011;8222;51.462;12.630;2022-08-19T08:35:50;36.70;;;32.75;;
16228;SDS011;8222;51.462;12.630;2022-08-19T08:38:17;36.28;;;32.28;;
16228;SDS011;8222;51.462;12.630;2022-08-19T08:40:57;36.58;;;32.72;;
16228;SDS011;8222;51.462;12.630;2022-08-19T08:43:35;37.05;;;32.30;;
16228;SDS011;8222;51.462;12.630;2022-08-19T08:48:35;34.55;;;30.80;;
16228;SDS011;8222;51.462;12.630;2022-08-19T08:51:12;33.43;;;30.07;;
16228;SDS011;8222;51.462;12.630;2022-08-19T08:53:47;34.40;;;30.80;;
16228;SDS011;8222;51.462;12.630;2022-08-19T08:56:16;36.22;;;32.38;;
16228;SDS011;8222;51.462;12.630;2022-08-19T08:58:57;34.87;;;31.07;;
16228;SDS011;8222;51.462;12.630;2022-08-19T09:01:37;32.72;;;29.23;;
16228;SDS011;8222;51.462;12.630;2022-08-19T09:04:04;32.58;;;29.38;;
16228;SDS011;8222;51.462;12.630;2022-08-19T09:09:04;31.50;;;28.23;;
16228;SDS011;8222;51.462;12.630;2022-08-19T09:15:04;29.33;;;26.45;;
16228;SDS011;8222;51.462;12.630;2022-08-19T09:17:33;28.73;;;25.90;;
16228;SDS011;8222;51.462;12.630;2022-08-19T09:22:39;30.33;;;27.35;;
16228;SDS011;8222;51.462;12.630;2022-08-19T09:25:09;28.77;;;25.92;;
16228;SDS011;8222;51.462;12.630;2022-08-19T09:27:37;27.70;;;25.05;;
16228;SDS011;8222;51.462;12.630;2022-08-19T09:30:04;29.63;;;26.83;;
16228;SDS011;8222;51.462;12.630;2022-08-19T09:32:32;29.43;;;26.33;;
16228;SDS011;8222;51.462;12.630;2022-08-19T09:34:58;29.35;;;26.27;;
16228;SDS011;8222;51.462;12.630;2022-08-19T09:37:26;31.75;;;28.50;;
16228;SDS011;8222;51.462;12.630;2022-08-19T09:39:53;30.88;;;27.77;;
16228;SDS011;8222;51.462;12.630;2022-08-19T09:42:19;30.10;;;26.90;;
16228;SDS011;8222;51.462;12.630;2022-08-19T09:44:45;33.03;;;29.70;;
16228;SDS011;8222;51.462;12.630;2022-08-19T09:47:11;34.40;;;30.80;;
16228;SDS011;8222;51.462;12.630;2022-08-19T09:49:38;35.75;;;32.05;;
16228;SDS011;8222;51.462;12.630;2022-08-19T09:52:05;33.90;;;30.23;;
16228;SDS011;8222;51.462;12.630;2022-08-19T09:54:35;35.78;;;31.98;;
16228;SDS011;8222;51.462;12.630;2022-08-19T09:57:02;34.45;;;30.92;;
16228;SDS011;8222;51.462;12.630;2022-08-19T09:59:28;32.60;;;29.37;;
16228;SDS011;8222;51.462;12.630;2022-08-19T10:01:54;30.90;;;27.92;;
16228;SDS011;8222;51.462;12.630;2022-08-19T10:04:20;29.00;;;26.30;;
16228;SDS011;8222;51.462;12.630;2022-08-19T10:06:46;28.73;;;26.08;;
16228;SDS011;8222;51.462;12.630;2022-08-19T10:09:14;29.23;;;26.63;;
16228;SDS011;8222;51.462;12.630;2022-08-19T10:11:41;31.30;;;28.20;;
16228;SDS011;8222;51.462;12.630;2022-08-19T10:14:08;31.63;;;28.27;;
16228;SDS011;8222;51.462;12.630;2022-08-19T10:16:35;30.83;;;28.03;;
16228;SDS011;8222;51.462;12.630;2022-08-19T10:19:02;29.48;;;26.77;;
16228;SDS011;8222;51.462;12.630;2022-08-19T10:21:29;29.52;;;26.70;;
16228;SDS011;8222;51.462;12.630;2022-08-19T10:23:58;28.10;;;25.50;;
16228;SDS011;8222;51.462;12.630;2022-08-19T10:26:30;28.90;;;26.30;;
16228;SDS011;8222;51.462;12.630;2022-08-19T10:28:58;26.75;;;24.45;;
16228;SDS011;8222;51.462;12.630;2022-08-19T10:31:25;26.80;;;24.50;;
16228;SDS011;8222;51.462;12.630;2022-08-19T10:33:53;27.65;;;25.08;;
16228;SDS011;8222;51.462;12.630;2022-08-19T10:36:23;25.33;;;23.05;;
16228;SDS011;8222;51.462;12.630;2022-08-19T10:38:51;22.58;;;20.48;;
16228;SDS011;8222;51.462;12.630;2022-08-19T10:41:22;27.27;;;24.88;;
16228;SDS011;8222;51.462;12.630;2022-08-19T10:43:50;25.10;;;22.90;;
16228;SDS011;8222;51.462;12.630;2022-08-19T10:46:19;22.77;;;20.73;;
16228;SDS011;8222;51.462;12.630;2022-08-19T10:48:47;23.60;;;21.58;;
16228;SDS011;8222;51.462;12.630;2022-08-19T10:51:13;21.33;;;19.55;;
16228;SDS011;8222;51.462;12.630;2022-08-19T10:53:58;26.45;;;24.05;;
16228;SDS011;8222;51.462;12.630;2022-08-19T10:56:25;27.27;;;24.77;;
16228;SDS011;8222;51.462;12.630;2022-08-19T10:59:11;22.73;;;20.70;;
16228;SDS011;8222;51.462;12.630;2022-08-19T11:01:39;24.02;;;22.02;;
16228;SDS011;8222;51.462;12.630;2022-08-19T11:04:06;21.98;;;19.98;;
16228;SDS011;8222;51.462;12.630;2022-08-19T11:06:35;26.63;;;24.23;;
16228;SDS011;8222;51.462;12.630;2022-08-19T11:09:03;26.87;;;24.30;;
16228;SDS011;8222;51.462;12.630;2022-08-19T11:11:30;21.33;;;19.52;;
16228;SDS011;8222;51.462;12.630;2022-08-19T11:13:57;23.20;;;21.20;;
16228;SDS011;8222;51.462;12.630;2022-08-19T11:16:23;25.92;;;23.63;;
16228;SDS011;8222;51.462;12.630;2022-08-19T11:18:54;25.65;;;23.38;;
16228;SDS011;8222;51.462;12.630;2022-08-19T11:21:30;26.23;;;23.92;;
16228;SDS011;8222;51.462;12.630;2022-08-19T11:23:58;26.23;;;23.83;;
16228;SDS011;8222;51.462;12.630;2022-08-19T11:26:27;25.88;;;23.67;;
16228;SDS011;8222;51.462;12.630;2022-08-19T11:28:54;24.52;;;22.27;;
16228;SDS011;8222;51.462;12.630;2022-08-19T11:31:22;26.77;;;24.58;;
16228;SDS011;8222;51.462;12.630;2022-08-19T11:33:50;26.17;;;23.83;;
16228;SDS011;8222;51.462;12.630;2022-08-19T11:36:16;26.50;;;24.10;;
16228;SDS011;8222;51.462;12.630;2022-08-19T11:38:42;27.17;;;24.85;;
16228;SDS011;8222;51.462;12.630;2022-08-19T11:41:09;25.98;;;23.75;;
16228;SDS011;8222;51.462;12.630;2022-08-19T11:43:36;25.75;;;23.45;;
16228;SDS011;8222;51.462;12.630;2022-08-19T11:46:06;25.80;;;23.40;;
16228;SDS011;8222;51.462;12.630;2022-08-19T11:48:32;25.77;;;23.52;;
16228;SDS011;8222;51.462;12.630;2022-08-19T11:50:58;25.50;;;23.23;;
16228;SDS011;8222;51.462;12.630;2022-08-19T11:53:24;26.40;;;24.08;;
16228;SDS011;8222;51.462;12.630;2022-08-19T11:55:52;24.07;;;21.97;;
16228;SDS011;8222;51.462;12.630;2022-08-19T11:58:20;25.75;;;23.48;;
16228;SDS011;8222;51.462;12.630;2022-08-19T12:00:46;24.13;;;22.02;;
16228;SDS011;8222;51.462;12.630;2022-08-19T12:03:14;23.50;;;21.43;;
16228;SDS011;8222;51.462;12.630;2022-08-19T12:05:40;23.30;;;21.20;;
16228;SDS011;8222;51.462;12.630;2022-08-19T12:08:07;23.60;;;21.60;;
16228;SDS011;8222;51.462;12.630;2022-08-19T12:10:34;23.15;;;21.15;;
16228;SDS011;8222;51.462;12.630;2022-08-19T12:12:59;21.83;;;20.02;;
16228;SDS011;8222;51.462;12.630;2022-08-19T12:15:26;22.05;;;20.15;;
16228;SDS011;8222;51.462;12.630;2022-08-19T12:17:54;21.17;;;19.35;;
16228;SDS011;8222;51.462;12.630;2022-08-19T12:20:22;20.40;;;18.63;;
16228;SDS011;8222;51.462;12.630;2022-08-19T12:22:48;20.02;;;18.33;;
16228;SDS011;8222;51.462;12.630;2022-08-19T12:25:15;21.37;;;19.47;;
16228;SDS011;8222;51.462;12.630;2022-08-19T12:27:41;18.98;;;17.48;;
16228;SDS011;8222;51.462;12.630;2022-08-19T12:30:08;19.17;;;17.55;;
16228;SDS011;8222;51.462;12.630;2022-08-19T12:32:36;20.40;;;18.52;;
16228;SDS011;8222;51.462;12.630;2022-08-19T12:35:01;19.27;;;17.67;;
16228;SDS011;8222;51.462;12.630;2022-08-19T12:37:28;20.10;;;18.25;;
16228;SDS011;8222;51.462;12.630;2022-08-19T12:39:56;20.65;;;18.95;;
16228;SDS011;8222;51.462;12.630;2022-08-19T12:42:22;20.35;;;18.55;;
16228;SDS011;8222;51.462;12.630;2022-08-19T12:44:48;20.77;;;18.90;;
16228;SDS011;8222;51.462;12.630;2022-08-19T12:47:16;21.15;;;19.25;;
16228;SDS011;8222;51.462;12.630;2022-08-19T12:49:43;21.33;;;19.38;;
16228;SDS011;8222;51.462;12.630;2022-08-19T12:52:09;22.20;;;20.30;;
16228;SDS011;8222;51.462;12.630;2022-08-19T12:54:35;22.08;;;20.15;;
16228;SDS011;8222;51.462;12.630;2022-08-19T12:57:08;20.70;;;18.90;;
16228;SDS011;8222;51.462;12.630;2022-08-19T12:59:35;22.98;;;20.98;;
16228;SDS011;8222;51.462;12.630;2022-08-19T13:02:05;21.58;;;19.80;;
16228;SDS011;8222;51.462;12.630;2022-08-19T13:04:32;23.02;;;20.92;;
16228;SDS011;8222;51.462;12.630;2022-08-19T13:07:01;22.58;;;20.50;;
16228;SDS011;8222;51.462;12.630;2022-08-19T13:09:27;23.13;;;21.20;;
16228;SDS011;8222;51.462;12.630;2022-08-19T13:11:52;22.52;;;20.50;;
16228;SDS011;8222;51.462;12.630;2022-08-19T13:14:18;23.70;;;21.58;;
16228;SDS011;8222;51.462;12.630;2022-08-19T13:16:44;22.43;;;20.53;;
16228;SDS011;8222;51.462;12.630;2022-08-19T13:19:09;22.67;;;20.67;;
16228;SDS011;8222;51.462;12.630;2022-08-19T13:21:36;21.55;;;19.70;;
16228;SDS011;8222;51.462;12.630;2022-08-19T13:24:02;22.53;;;20.73;;
16228;SDS011;8222;51.462;12.630;2022-08-19T13:26:28;21.63;;;19.77;;
16228;SDS011;8222;51.462;12.630;2022-08-19T13:28:54;23.60;;;21.43;;
16228;SDS011;8222;51.462;12.630;2022-08-19T13:31:39;23.73;;;21.53;;
16228;SDS011;8222;51.462;12.630;2022-08-19T13:34:29;24.40;;;22.02;;
16228;SDS011;8222;51.462;12.630;2022-08-19T13:36:58;23.65;;;21.65;;
16228;SDS011;8222;51.462;12.630;2022-08-19T13:39:25;23.30;;;21.20;;
16228;SDS011;8222;51.462;12.630;2022-08-19T13:41:50;22.67;;;20.58;;
16228;SDS011;8222;51.462;12.630;2022-08-19T13:44:16;23.23;;;21.23;;
16228;SDS011;8222;51.462;12.630;2022-08-19T13:46:43;22.05;;;20.00;;
16228;SDS011;8222;51.462;12.630;2022-08-19T13:49:10;22.05;;;20.10;;
16228;SDS011;8222;51.462;12.630;2022-08-19T13:51:38;21.73;;;19.65;;
16228;SDS011;8222;51.462;12.630;2022-08-19T13:54:07;23.08;;;21.00;;
16228;SDS011;8222;51.462;12.630;2022-08-19T13:56:34;22.33;;;20.33;;
16228;SDS011;8222;51.462;12.630;2022-08-19T13:59:04;23.03;;;20.93;;
16228;SDS011;8222;51.462;12.630;2022-08-19T14:01:29;21.10;;;19.37;;
16228;SDS011;8222;51.462;12.630;2022-08-19T14:03:55;22.50;;;20.50;;
16228;SDS011;8222;51.462;12.630;2022-08-19T14:06:21;22.00;;;20.07;;
16228;SDS011;8222;51.462;12.630;2022-08-19T14:08:47;21.67;;;19.77;;
16228;SDS011;8222;51.462;12.630;2022-08-19T14:11:13;21.42;;;19.60;;
16228;SDS011;8222;51.462;12.630;2022-08-19T14:13:40;20.50;;;18.60;;
16228;SDS011;8222;51.462;12.630;2022-08-19T14:16:09;19.73;;;17.92;;
16228;SDS011;8222;51.462;12.630;2022-08-19T14:18:35;22.38;;;20.33;;
16228;SDS011;8222;51.462;12.630;2022-08-19T14:21:02;20.50;;;18.60;;
16228;SDS011;8222;51.462;12.630;2022-08-19T14:23:29;22.08;;;20.15;;
16228;SDS011;8222;51.462;12.630;2022-08-19T14:26:02;21.33;;;19.43;;
16228;SDS011;8222;51.462;12.630;2022-08-19T14:28:29;20.90;;;18.90;;
16228;SDS011;8222;51.462;12.630;2022-08-19T14:30:55;20.60;;;18.73;;
16228;SDS011;8222;51.462;12.630;2022-08-19T14:33:21;20.23;;;18.40;;
16228;SDS011;8222;51.462;12.630;2022-08-19T14:35:46;19.88;;;18.08;;
16228;SDS011;8222;51.462;12.630;2022-08-19T14:38:16;19.53;;;17.93;;
16228;SDS011;8222;51.462;12.630;2022-08-19T14:40:43;20.40;;;18.57;;